Terminal Aerodrome Forecast
Issued by NWS

Home | Current Version | Previous Version | Text Only | Print | Product List | Glossary On
Versions: 1 2 3 4 5 6 7 8 9 10 11 12 13 14 15 16 17 18 19 20 21 22 23 24 25 26 27 28
000
FTUS46 KEKA 291456 AAA
TAFCEC
TAF AMD
KCEC 291456Z 2915/3012 31006KT 6SM BR BKN004 OVC012
      TEMPO 2917/2918 FEW004 SCT012
     FM291800 30010KT P6SM SKC
     FM300400 VRB03KT 4SM BR BKN012
     FM300600 17005KT 4SM BR OVC009=

USA.gov is the U.S. government's official web portal to all federal, state and local government web resources and services.